sensor_id;sensor_type;location;lat;lon;timestamp;P1;durP1;ratioP1;P2;durP2;ratioP2
60859;SDS011;46694;54.382;9.708;2023-02-17T00:00:08;107.38;;;59.50;;
60859;SDS011;46694;54.382;9.708;2023-02-17T00:02:49;113.45;;;61.88;;
60859;SDS011;46694;54.382;9.708;2023-02-17T00:05:33;121.32;;;61.92;;
60859;SDS011;46694;54.382;9.708;2023-02-17T00:08:17;112.97;;;61.80;;
60859;SDS011;46694;54.382;9.708;2023-02-17T00:10:57;110.00;;;60.70;;
60859;SDS011;46694;54.382;9.708;2023-02-17T00:13:36;114.75;;;62.60;;
60859;SDS011;46694;54.382;9.708;2023-02-17T00:16:17;112.78;;;59.53;;
60859;SDS011;46694;54.382;9.708;2023-02-17T00:19:00;118.80;;;62.00;;
60859;SDS011;46694;54.382;9.708;2023-02-17T00:21:40;116.17;;;60.90;;
60859;SDS011;46694;54.382;9.708;2023-02-17T00:24:19;115.47;;;62.13;;
60859;SDS011;46694;54.382;9.708;2023-02-17T00:27:00;109.47;;;59.80;;
60859;SDS011;46694;54.382;9.708;2023-02-17T00:29:40;106.40;;;58.37;;
60859;SDS011;46694;54.382;9.708;2023-02-17T00:32:20;109.90;;;59.43;;
60859;SDS011;46694;54.382;9.708;2023-02-17T00:34:59;115.27;;;62.83;;
60859;SDS011;46694;54.382;9.708;2023-02-17T00:37:39;121.35;;;59.25;;
60859;SDS011;46694;54.382;9.708;2023-02-17T00:40:19;119.05;;;62.83;;
60859;SDS011;46694;54.382;9.708;2023-02-17T00:42:58;109.45;;;59.22;;
60859;SDS011;46694;54.382;9.708;2023-02-17T00:45:38;109.38;;;57.67;;
60859;SDS011;46694;54.382;9.708;2023-02-17T00:48:17;113.65;;;58.53;;
60859;SDS011;46694;54.382;9.708;2023-02-17T00:50:57;128.40;;;61.10;;
60859;SDS011;46694;54.382;9.708;2023-02-17T00:53:37;115.27;;;58.23;;
60859;SDS011;46694;54.382;9.708;2023-02-17T00:56:16;111.78;;;59.60;;
60859;SDS011;46694;54.382;9.708;2023-02-17T00:58:56;108.57;;;56.30;;
60859;SDS011;46694;54.382;9.708;2023-02-17T01:01:36;110.70;;;56.73;;
60859;SDS011;46694;54.382;9.708;2023-02-17T01:04:16;107.20;;;55.90;;
60859;SDS011;46694;54.382;9.708;2023-02-17T01:06:56;99.80;;;53.27;;
60859;SDS011;46694;54.382;9.708;2023-02-17T01:09:36;102.27;;;54.53;;
60859;SDS011;46694;54.382;9.708;2023-02-17T01:12:15;106.47;;;53.92;;
60859;SDS011;46694;54.382;9.708;2023-02-17T01:14:55;96.30;;;49.63;;
60859;SDS011;46694;54.382;9.708;2023-02-17T01:17:35;105.75;;;51.00;;
60859;SDS011;46694;54.382;9.708;2023-02-17T01:20:14;100.07;;;51.47;;
60859;SDS011;46694;54.382;9.708;2023-02-17T01:22:54;94.97;;;50.07;;
60859;SDS011;46694;54.382;9.708;2023-02-17T01:25:37;88.77;;;48.10;;
60859;SDS011;46694;54.382;9.708;2023-02-17T01:28:18;96.90;;;48.78;;
60859;SDS011;46694;54.382;9.708;2023-02-17T01:31:03;86.33;;;47.70;;
60859;SDS011;46694;54.382;9.708;2023-02-17T01:33:45;80.93;;;43.95;;
60859;SDS011;46694;54.382;9.708;2023-02-17T01:36:25;84.67;;;44.50;;
60859;SDS011;46694;54.382;9.708;2023-02-17T01:39:05;86.60;;;42.97;;
60859;SDS011;46694;54.382;9.708;2023-02-17T01:41:45;85.30;;;43.65;;
60859;SDS011;46694;54.382;9.708;2023-02-17T01:44:25;76.97;;;42.37;;
60859;SDS011;46694;54.382;9.708;2023-02-17T01:47:04;75.90;;;39.63;;
60859;SDS011;46694;54.382;9.708;2023-02-17T01:49:44;72.47;;;39.77;;
60859;SDS011;46694;54.382;9.708;2023-02-17T01:52:24;68.47;;;38.60;;
60859;SDS011;46694;54.382;9.708;2023-02-17T01:55:05;74.53;;;39.28;;
60859;SDS011;46694;54.382;9.708;2023-02-17T01:57:50;68.15;;;37.20;;
60859;SDS011;46694;54.382;9.708;2023-02-17T02:00:34;79.47;;;39.53;;
60859;SDS011;46694;54.382;9.708;2023-02-17T02:03:14;81.93;;;38.43;;
60859;SDS011;46694;54.382;9.708;2023-02-17T02:05:54;80.70;;;39.83;;
60859;SDS011;46694;54.382;9.708;2023-02-17T02:08:37;82.43;;;39.77;;
60859;SDS011;46694;54.382;9.708;2023-02-17T02:11:25;83.63;;;40.43;;
60859;SDS011;46694;54.382;9.708;2023-02-17T02:14:05;84.83;;;39.30;;
60859;SDS011;46694;54.382;9.708;2023-02-17T02:16:51;78.83;;;38.30;;
60859;SDS011;46694;54.382;9.708;2023-02-17T02:27:04;92.73;;;40.20;;
60859;SDS011;46694;54.382;9.708;2023-02-17T02:36:11;100.03;;;39.50;;
60859;SDS011;46694;54.382;9.708;2023-02-17T02:39:32;84.40;;;37.70;;
60859;SDS011;46694;54.382;9.708;2023-02-17T02:42:11;85.28;;;37.33;;
60859;SDS011;46694;54.382;9.708;2023-02-17T02:44:55;81.07;;;36.87;;
60859;SDS011;46694;54.382;9.708;2023-02-17T03:03:00;81.23;;;36.20;;
60859;SDS011;46694;54.382;9.708;2023-02-17T03:11:36;101.67;;;40.00;;
60859;SDS011;46694;54.382;9.708;2023-02-17T03:14:18;111.57;;;42.23;;
60859;SDS011;46694;54.382;9.708;2023-02-17T03:16:59;107.77;;;43.33;;
60859;SDS011;46694;54.382;9.708;2023-02-17T03:19:38;126.87;;;44.47;;
60859;SDS011;46694;54.382;9.708;2023-02-17T03:22:22;121.80;;;43.63;;
60859;SDS011;46694;54.382;9.708;2023-02-17T03:25:10;124.23;;;45.23;;
60859;SDS011;46694;54.382;9.708;2023-02-17T03:27:49;136.10;;;44.90;;
60859;SDS011;46694;54.382;9.708;2023-02-17T03:30:28;150.70;;;43.83;;
60859;SDS011;46694;54.382;9.708;2023-02-17T03:33:08;149.48;;;45.85;;
60859;SDS011;46694;54.382;9.708;2023-02-17T03:35:47;147.10;;;46.73;;
60859;SDS011;46694;54.382;9.708;2023-02-17T03:38:27;165.57;;;49.73;;
60859;SDS011;46694;54.382;9.708;2023-02-17T03:41:07;156.07;;;48.60;;
60859;SDS011;46694;54.382;9.708;2023-02-17T03:43:46;156.33;;;47.07;;
60859;SDS011;46694;54.382;9.708;2023-02-17T03:46:26;161.23;;;47.20;;
60859;SDS011;46694;54.382;9.708;2023-02-17T03:49:05;154.87;;;46.27;;
60859;SDS011;46694;54.382;9.708;2023-02-17T03:51:45;175.93;;;49.40;;
60859;SDS011;46694;54.382;9.708;2023-02-17T03:54:25;162.07;;;48.13;;
60859;SDS011;46694;54.382;9.708;2023-02-17T03:57:05;153.50;;;47.43;;
60859;SDS011;46694;54.382;9.708;2023-02-17T03:59:45;169.47;;;50.67;;
60859;SDS011;46694;54.382;9.708;2023-02-17T04:02:25;153.83;;;47.70;;
60859;SDS011;46694;54.382;9.708;2023-02-17T04:05:04;168.67;;;49.40;;
60859;SDS011;46694;54.382;9.708;2023-02-17T04:07:44;150.80;;;45.47;;
60859;SDS011;46694;54.382;9.708;2023-02-17T04:10:24;158.13;;;45.77;;
60859;SDS011;46694;54.382;9.708;2023-02-17T04:13:04;130.03;;;43.70;;
60859;SDS011;46694;54.382;9.708;2023-02-17T04:15:43;146.07;;;44.90;;
60859;SDS011;46694;54.382;9.708;2023-02-17T04:18:23;130.90;;;43.60;;
60859;SDS011;46694;54.382;9.708;2023-02-17T04:21:03;138.47;;;42.30;;
60859;SDS011;46694;54.382;9.708;2023-02-17T04:23:43;112.93;;;41.80;;
60859;SDS011;46694;54.382;9.708;2023-02-17T04:26:22;133.47;;;42.80;;
60859;SDS011;46694;54.382;9.708;2023-02-17T04:29:02;106.13;;;39.23;;
60859;SDS011;46694;54.382;9.708;2023-02-17T04:31:43;118.77;;;41.87;;
60859;SDS011;46694;54.382;9.708;2023-02-17T04:34:22;102.63;;;39.67;;
60859;SDS011;46694;54.382;9.708;2023-02-17T04:37:02;107.93;;;41.63;;
60859;SDS011;46694;54.382;9.708;2023-02-17T04:39:42;113.57;;;41.23;;
60859;SDS011;46694;54.382;9.708;2023-02-17T04:42:21;121.23;;;42.83;;
60859;SDS011;46694;54.382;9.708;2023-02-17T04:45:01;123.07;;;42.90;;
60859;SDS011;46694;54.382;9.708;2023-02-17T04:47:41;115.30;;;42.50;;
60859;SDS011;46694;54.382;9.708;2023-02-17T04:50:21;115.70;;;42.53;;
60859;SDS011;46694;54.382;9.708;2023-02-17T04:53:00;106.23;;;40.47;;
60859;SDS011;46694;54.382;9.708;2023-02-17T04:55:40;93.97;;;36.97;;
60859;SDS011;46694;54.382;9.708;2023-02-17T04:58:20;86.13;;;34.50;;
60859;SDS011;46694;54.382;9.708;2023-02-17T05:01:00;93.07;;;35.77;;
60859;SDS011;46694;54.382;9.708;2023-02-17T05:03:39;86.07;;;33.93;;
60859;SDS011;46694;54.382;9.708;2023-02-17T05:06:19;80.57;;;35.40;;
60859;SDS011;46694;54.382;9.708;2023-02-17T05:08:59;86.73;;;34.00;;
60859;SDS011;46694;54.382;9.708;2023-02-17T05:11:38;79.70;;;32.43;;
60859;SDS011;46694;54.382;9.708;2023-02-17T05:14:18;85.80;;;35.10;;
60859;SDS011;46694;54.382;9.708;2023-02-17T05:16:57;89.73;;;35.67;;
60859;SDS011;46694;54.382;9.708;2023-02-17T05:19:37;83.80;;;33.70;;
60859;SDS011;46694;54.382;9.708;2023-02-17T05:22:16;93.90;;;42.13;;
60859;SDS011;46694;54.382;9.708;2023-02-17T05:24:56;93.40;;;37.90;;
60859;SDS011;46694;54.382;9.708;2023-02-17T05:27:36;95.27;;;42.10;;
60859;SDS011;46694;54.382;9.708;2023-02-17T05:30:15;111.57;;;44.40;;
60859;SDS011;46694;54.382;9.708;2023-02-17T05:32:55;112.77;;;46.00;;
60859;SDS011;46694;54.382;9.708;2023-02-17T05:35:34;120.20;;;49.07;;
60859;SDS011;46694;54.382;9.708;2023-02-17T05:38:14;143.47;;;53.80;;
60859;SDS011;46694;54.382;9.708;2023-02-17T05:40:53;148.43;;;56.00;;
60859;SDS011;46694;54.382;9.708;2023-02-17T05:43:33;148.60;;;58.50;;
60859;SDS011;46694;54.382;9.708;2023-02-17T05:46:13;147.83;;;54.90;;
60859;SDS011;46694;54.382;9.708;2023-02-17T05:48:53;139.30;;;51.17;;
60859;SDS011;46694;54.382;9.708;2023-02-17T05:51:32;138.87;;;53.27;;
60859;SDS011;46694;54.382;9.708;2023-02-17T05:54:11;142.97;;;54.03;;
60859;SDS011;46694;54.382;9.708;2023-02-17T05:56:51;142.67;;;54.93;;
60859;SDS011;46694;54.382;9.708;2023-02-17T05:59:30;141.50;;;57.70;;
60859;SDS011;46694;54.382;9.708;2023-02-17T06:02:10;150.47;;;59.90;;
60859;SDS011;46694;54.382;9.708;2023-02-17T06:04:50;154.70;;;62.50;;
60859;SDS011;46694;54.382;9.708;2023-02-17T06:07:29;172.33;;;69.00;;
60859;SDS011;46694;54.382;9.708;2023-02-17T06:10:09;173.20;;;68.60;;
60859;SDS011;46694;54.382;9.708;2023-02-17T06:12:49;166.47;;;68.67;;
60859;SDS011;46694;54.382;9.708;2023-02-17T06:15:29;193.17;;;73.90;;
60859;SDS011;46694;54.382;9.708;2023-02-17T06:18:08;188.87;;;71.53;;
60859;SDS011;46694;54.382;9.708;2023-02-17T06:20:48;185.53;;;73.83;;
60859;SDS011;46694;54.382;9.708;2023-02-17T06:23:28;163.50;;;69.00;;
60859;SDS011;46694;54.382;9.708;2023-02-17T06:26:07;156.40;;;64.63;;
60859;SDS011;46694;54.382;9.708;2023-02-17T06:28:47;172.07;;;67.47;;
60859;SDS011;46694;54.382;9.708;2023-02-17T06:31:26;144.77;;;59.80;;
60859;SDS011;46694;54.382;9.708;2023-02-17T06:34:09;155.50;;;58.50;;
60859;SDS011;46694;54.382;9.708;2023-02-17T06:36:48;153.10;;;59.70;;
60859;SDS011;46694;54.382;9.708;2023-02-17T06:39:28;122.67;;;48.87;;
60859;SDS011;46694;54.382;9.708;2023-02-17T06:42:08;139.83;;;52.20;;
60859;SDS011;46694;54.382;9.708;2023-02-17T06:44:47;126.37;;;50.87;;
60859;SDS011;46694;54.382;9.708;2023-02-17T06:47:27;108.07;;;45.50;;
60859;SDS011;46694;54.382;9.708;2023-02-17T06:50:07;101.10;;;42.73;;
60859;SDS011;46694;54.382;9.708;2023-02-17T06:52:48;107.57;;;42.27;;
60859;SDS011;46694;54.382;9.708;2023-02-17T06:55:27;85.03;;;39.17;;
60859;SDS011;46694;54.382;9.708;2023-02-17T06:58:07;80.60;;;36.00;;
60859;SDS011;46694;54.382;9.708;2023-02-17T07:00:47;78.93;;;31.40;;
60859;SDS011;46694;54.382;9.708;2023-02-17T07:03:26;82.90;;;35.57;;
60859;SDS011;46694;54.382;9.708;2023-02-17T07:06:06;68.47;;;33.10;;
60859;SDS011;46694;54.382;9.708;2023-02-17T07:08:46;69.20;;;31.97;;
60859;SDS011;46694;54.382;9.708;2023-02-17T07:11:25;60.53;;;30.20;;
60859;SDS011;46694;54.382;9.708;2023-02-17T07:14:09;60.90;;;29.70;;
60859;SDS011;46694;54.382;9.708;2023-02-17T07:16:48;72.73;;;30.77;;
60859;SDS011;46694;54.382;9.708;2023-02-17T07:19:28;61.17;;;29.70;;
60859;SDS011;46694;54.382;9.708;2023-02-17T07:22:08;59.60;;;29.70;;
60859;SDS011;46694;54.382;9.708;2023-02-17T07:24:47;60.83;;;28.73;;
60859;SDS011;46694;54.382;9.708;2023-02-17T07:27:27;58.77;;;26.80;;
60859;SDS011;46694;54.382;9.708;2023-02-17T07:30:07;56.93;;;27.90;;
60859;SDS011;46694;54.382;9.708;2023-02-17T07:32:46;55.50;;;27.83;;
60859;SDS011;46694;54.382;9.708;2023-02-17T07:35:26;67.93;;;30.33;;
60859;SDS011;46694;54.382;9.708;2023-02-17T07:38:05;68.80;;;29.33;;
60859;SDS011;46694;54.382;9.708;2023-02-17T07:40:45;60.00;;;29.80;;
60859;SDS011;46694;54.382;9.708;2023-02-17T07:43:25;61.57;;;28.40;;
60859;SDS011;46694;54.382;9.708;2023-02-17T07:46:05;78.77;;;30.50;;
60859;SDS011;46694;54.382;9.708;2023-02-17T07:48:45;58.33;;;28.73;;
60859;SDS011;46694;54.382;9.708;2023-02-17T07:51:25;77.20;;;31.40;;
60859;SDS011;46694;54.382;9.708;2023-02-17T07:54:05;64.73;;;32.23;;
60859;SDS011;46694;54.382;9.708;2023-02-17T07:56:44;67.43;;;31.40;;
60859;SDS011;46694;54.382;9.708;2023-02-17T07:59:24;70.70;;;32.13;;
60859;SDS011;46694;54.382;9.708;2023-02-17T08:02:04;78.70;;;36.53;;
60859;SDS011;46694;54.382;9.708;2023-02-17T08:04:43;76.60;;;35.93;;
60859;SDS011;46694;54.382;9.708;2023-02-17T08:07:23;80.40;;;37.30;;
60859;SDS011;46694;54.382;9.708;2023-02-17T08:10:02;90.30;;;39.77;;
60859;SDS011;46694;54.382;9.708;2023-02-17T08:13:01;92.93;;;39.90;;
60859;SDS011;46694;54.382;9.708;2023-02-17T08:15:59;82.83;;;35.83;;
60859;SDS011;46694;54.382;9.708;2023-02-17T08:18:38;86.47;;;37.63;;
60859;SDS011;46694;54.382;9.708;2023-02-17T08:21:18;65.90;;;30.80;;
60859;SDS011;46694;54.382;9.708;2023-02-17T08:23:57;70.43;;;32.87;;
60859;SDS011;46694;54.382;9.708;2023-02-17T08:26:37;72.80;;;32.20;;
60859;SDS011;46694;54.382;9.708;2023-02-17T08:29:17;71.33;;;29.70;;
60859;SDS011;46694;54.382;9.708;2023-02-17T08:31:57;57.63;;;27.30;;
60859;SDS011;46694;54.382;9.708;2023-02-17T08:34:37;53.00;;;24.70;;
60859;SDS011;46694;54.382;9.708;2023-02-17T08:37:20;53.67;;;25.03;;
60859;SDS011;46694;54.382;9.708;2023-02-17T08:39:59;55.90;;;25.77;;
60859;SDS011;46694;54.382;9.708;2023-02-17T08:42:39;48.67;;;24.10;;
60859;SDS011;46694;54.382;9.708;2023-02-17T08:45:18;51.83;;;26.00;;
60859;SDS011;46694;54.382;9.708;2023-02-17T08:47:58;52.33;;;24.07;;
60859;SDS011;46694;54.382;9.708;2023-02-17T08:50:38;56.00;;;25.10;;
60859;SDS011;46694;54.382;9.708;2023-02-17T08:53:17;47.20;;;22.47;;
60859;SDS011;46694;54.382;9.708;2023-02-17T08:55:57;45.07;;;23.33;;
60859;SDS011;46694;54.382;9.708;2023-02-17T08:58:36;44.17;;;22.73;;
60859;SDS011;46694;54.382;9.708;2023-02-17T09:01:16;41.13;;;24.20;;
60859;SDS011;46694;54.382;9.708;2023-02-17T09:03:57;50.77;;;24.97;;
60859;SDS011;46694;54.382;9.708;2023-02-17T09:06:40;45.43;;;22.80;;
60859;SDS011;46694;54.382;9.708;2023-02-17T09:09:22;42.77;;;24.47;;
60859;SDS011;46694;54.382;9.708;2023-02-17T09:12:06;42.40;;;22.20;;
60859;SDS011;46694;54.382;9.708;2023-02-17T09:14:46;38.67;;;19.60;;
60859;SDS011;46694;54.382;9.708;2023-02-17T09:17:26;36.80;;;18.57;;
60859;SDS011;46694;54.382;9.708;2023-02-17T09:20:05;31.13;;;16.27;;
60859;SDS011;46694;54.382;9.708;2023-02-17T09:22:46;24.73;;;14.90;;
60859;SDS011;46694;54.382;9.708;2023-02-17T09:25:25;22.90;;;12.97;;
60859;SDS011;46694;54.382;9.708;2023-02-17T09:28:05;22.90;;;13.60;;
60859;SDS011;46694;54.382;9.708;2023-02-17T09:30:45;20.30;;;12.50;;
60859;SDS011;46694;54.382;9.708;2023-02-17T09:33:24;15.77;;;10.00;;
60859;SDS011;46694;54.382;9.708;2023-02-17T09:36:05;18.20;;;11.97;;
60859;SDS011;46694;54.382;9.708;2023-02-17T09:38:47;17.77;;;11.90;;
60859;SDS011;46694;54.382;9.708;2023-02-17T09:44:32;20.73;;;12.90;;
60859;SDS011;46694;54.382;9.708;2023-02-17T09:47:24;20.27;;;15.90;;
60859;SDS011;46694;54.382;9.708;2023-02-17T09:53:40;27.30;;;18.30;;
60859;SDS011;46694;54.382;9.708;2023-02-17T09:56:31;31.13;;;20.77;;
60859;SDS011;46694;54.382;9.708;2023-02-17T10:02:04;37.77;;;24.77;;
60859;SDS011;46694;54.382;9.708;2023-02-17T10:04:51;43.67;;;25.37;;
60859;SDS011;46694;54.382;9.708;2023-02-17T10:07:52;41.90;;;25.90;;
60859;SDS011;46694;54.382;9.708;2023-02-17T10:10:43;38.20;;;23.80;;
60859;SDS011;46694;54.382;9.708;2023-02-17T10:13:38;33.97;;;21.87;;
60859;SDS011;46694;54.382;9.708;2023-02-17T10:16:22;30.50;;;19.23;;
60859;SDS011;46694;54.382;9.708;2023-02-17T10:19:28;31.43;;;16.83;;
60859;SDS011;46694;54.382;9.708;2023-02-17T10:22:16;23.80;;;14.70;;
60859;SDS011;46694;54.382;9.708;2023-02-17T10:24:59;19.33;;;14.03;;
60859;SDS011;46694;54.382;9.708;2023-02-17T10:27:42;22.23;;;13.03;;
60859;SDS011;46694;54.382;9.708;2023-02-17T10:30:36;21.03;;;12.50;;
60859;SDS011;46694;54.382;9.708;2023-02-17T10:33:36;18.33;;;12.10;;
60859;SDS011;46694;54.382;9.708;2023-02-17T10:42:33;25.73;;;14.60;;
60859;SDS011;46694;54.382;9.708;2023-02-17T10:45:25;25.47;;;14.63;;
60859;SDS011;46694;54.382;9.708;2023-02-17T10:48:21;41.50;;;14.30;;
60859;SDS011;46694;54.382;9.708;2023-02-17T10:51:12;28.63;;;16.57;;
60859;SDS011;46694;54.382;9.708;2023-02-17T10:53:59;42.50;;;20.23;;
60859;SDS011;46694;54.382;9.708;2023-02-17T10:56:47;48.27;;;22.40;;
60859;SDS011;46694;54.382;9.708;2023-02-17T10:59:37;46.30;;;25.27;;
60859;SDS011;46694;54.382;9.708;2023-02-17T11:02:21;75.37;;;31.27;;
60859;SDS011;46694;54.382;9.708;2023-02-17T11:16:50;44.30;;;19.67;;
60859;SDS011;46694;54.382;9.708;2023-02-17T11:19:38;65.47;;;22.93;;
60859;SDS011;46694;54.382;9.708;2023-02-17T11:22:37;102.67;;;48.10;;
60859;SDS011;46694;54.382;9.708;2023-02-17T11:25:24;49.90;;;17.57;;
60859;SDS011;46694;54.382;9.708;2023-02-17T11:28:05;41.13;;;15.10;;
60859;SDS011;46694;54.382;9.708;2023-02-17T11:31:01;25.33;;;14.57;;
60859;SDS011;46694;54.382;9.708;2023-02-17T11:33:42;42.17;;;15.80;;
60859;SDS011;46694;54.382;9.708;2023-02-17T11:36:23;37.33;;;16.70;;
60859;SDS011;46694;54.382;9.708;2023-02-17T11:39:18;49.50;;;16.33;;
60859;SDS011;46694;54.382;9.708;2023-02-17T11:41:59;55.10;;;15.83;;
60859;SDS011;46694;54.382;9.708;2023-02-17T11:44:38;53.27;;;17.90;;
60859;SDS011;46694;54.382;9.708;2023-02-17T11:50:34;46.23;;;17.17;;
60859;SDS011;46694;54.382;9.708;2023-02-17T11:56:42;68.77;;;16.80;;
60859;SDS011;46694;54.382;9.708;2023-02-17T12:06:29;64.13;;;21.57;;
60859;SDS011;46694;54.382;9.708;2023-02-17T12:09:28;52.57;;;12.30;;
60859;SDS011;46694;54.382;9.708;2023-02-17T12:15:48;37.00;;;11.50;;
60859;SDS011;46694;54.382;9.708;2023-02-17T12:18:44;39.60;;;10.70;;
60859;SDS011;46694;54.382;9.708;2023-02-17T12:33:35;53.67;;;9.70;;
60859;SDS011;46694;54.382;9.708;2023-02-17T12:36:39;52.03;;;10.10;;
60859;SDS011;46694;54.382;9.708;2023-02-17T12:39:22;47.13;;;9.33;;
60859;SDS011;46694;54.382;9.708;2023-02-17T12:42:25;37.83;;;8.83;;
60859;SDS011;46694;54.382;9.708;2023-02-17T12:45:15;41.23;;;8.90;;
60859;SDS011;46694;54.382;9.708;2023-02-17T12:48:00;45.70;;;7.73;;
60859;SDS011;46694;54.382;9.708;2023-02-17T12:50:51;64.73;;;9.83;;
60859;SDS011;46694;54.382;9.708;2023-02-17T13:00:17;37.40;;;9.07;;
60859;SDS011;46694;54.382;9.708;2023-02-17T13:03:02;41.57;;;7.07;;
60859;SDS011;46694;54.382;9.708;2023-02-17T13:06:02;40.10;;;7.80;;
60859;SDS011;46694;54.382;9.708;2023-02-17T13:12:17;55.57;;;9.13;;
60859;SDS011;46694;54.382;9.708;2023-02-17T13:15:24;49.50;;;7.63;;
60859;SDS011;46694;54.382;9.708;2023-02-17T13:21:16;42.30;;;8.40;;
60859;SDS011;46694;54.382;9.708;2023-02-17T13:24:13;41.53;;;6.40;;
60859;SDS011;46694;54.382;9.708;2023-02-17T13:27:32;45.60;;;7.20;;
60859;SDS011;46694;54.382;9.708;2023-02-17T13:33:03;39.40;;;7.17;;
60859;SDS011;46694;54.382;9.708;2023-02-17T13:36:10;55.07;;;8.53;;
60859;SDS011;46694;54.382;9.708;2023-02-17T13:38:54;45.27;;;7.83;;
60859;SDS011;46694;54.382;9.708;2023-02-17T13:42:22;47.63;;;7.77;;
60859;SDS011;46694;54.382;9.708;2023-02-17T13:48:21;45.07;;;7.70;;
60859;SDS011;46694;54.382;9.708;2023-02-17T13:51:23;42.40;;;6.87;;
60859;SDS011;46694;54.382;9.708;2023-02-17T13:54:06;43.40;;;7.27;;
60859;SDS011;46694;54.382;9.708;2023-02-17T13:56:50;43.10;;;8.00;;
60859;SDS011;46694;54.382;9.708;2023-02-17T13:59:31;55.43;;;7.10;;
60859;SDS011;46694;54.382;9.708;2023-02-17T14:02:18;46.40;;;8.00;;
60859;SDS011;46694;54.382;9.708;2023-02-17T14:05:00;37.03;;;7.53;;
60859;SDS011;46694;54.382;9.708;2023-02-17T14:07:57;40.13;;;8.10;;
60859;SDS011;46694;54.382;9.708;2023-02-17T14:10:52;33.87;;;6.80;;
60859;SDS011;46694;54.382;9.708;2023-02-17T14:13:33;45.40;;;8.23;;
60859;SDS011;46694;54.382;9.708;2023-02-17T14:19:10;55.17;;;8.60;;
60859;SDS011;46694;54.382;9.708;2023-02-17T14:21:58;48.50;;;7.03;;
60859;SDS011;46694;54.382;9.708;2023-02-17T14:24:41;44.53;;;7.63;;
60859;SDS011;46694;54.382;9.708;2023-02-17T14:27:21;65.20;;;9.30;;
60859;SDS011;46694;54.382;9.708;2023-02-17T14:30:01;43.47;;;7.70;;
60859;SDS011;46694;54.382;9.708;2023-02-17T14:32:40;40.10;;;7.13;;
60859;SDS011;46694;54.382;9.708;2023-02-17T14:35:21;35.80;;;7.03;;
60859;SDS011;46694;54.382;9.708;2023-02-17T14:38:09;46.63;;;6.90;;
60859;SDS011;46694;54.382;9.708;2023-02-17T14:41:07;47.43;;;7.03;;
60859;SDS011;46694;54.382;9.708;2023-02-17T14:43:47;59.03;;;7.50;;
60859;SDS011;46694;54.382;9.708;2023-02-17T14:46:27;69.97;;;7.97;;
60859;SDS011;46694;54.382;9.708;2023-02-17T14:49:06;50.57;;;6.00;;
60859;SDS011;46694;54.382;9.708;2023-02-17T14:51:46;42.83;;;7.00;;
60859;SDS011;46694;54.382;9.708;2023-02-17T14:54:25;47.00;;;7.30;;
60859;SDS011;46694;54.382;9.708;2023-02-17T14:57:07;50.50;;;8.00;;
60859;SDS011;46694;54.382;9.708;2023-02-17T14:59:51;54.20;;;8.10;;
60859;SDS011;46694;54.382;9.708;2023-02-17T15:02:35;44.07;;;7.87;;
60859;SDS011;46694;54.382;9.708;2023-02-17T15:05:15;50.70;;;8.93;;
60859;SDS011;46694;54.382;9.708;2023-02-17T15:07:54;41.00;;;7.60;;
60859;SDS011;46694;54.382;9.708;2023-02-17T15:10:34;44.80;;;9.50;;
60859;SDS011;46694;54.382;9.708;2023-02-17T15:13:16;49.40;;;8.23;;
60859;SDS011;46694;54.382;9.708;2023-02-17T15:15:58;50.10;;;7.70;;
60859;SDS011;46694;54.382;9.708;2023-02-17T15:18:38;45.50;;;8.63;;
60859;SDS011;46694;54.382;9.708;2023-02-17T15:27:18;42.73;;;8.03;;
60859;SDS011;46694;54.382;9.708;2023-02-17T15:29:58;41.80;;;7.03;;
60859;SDS011;46694;54.382;9.708;2023-02-17T15:32:38;49.80;;;8.50;;
60859;SDS011;46694;54.382;9.708;2023-02-17T15:35:19;46.72;;;9.30;;
60859;SDS011;46694;54.382;9.708;2023-02-17T15:38:02;51.00;;;9.27;;
60859;SDS011;46694;54.382;9.708;2023-02-17T15:40:41;58.93;;;7.03;;
60859;SDS011;46694;54.382;9.708;2023-02-17T15:43:21;62.70;;;8.32;;
60859;SDS011;46694;54.382;9.708;2023-02-17T15:46:02;39.87;;;8.00;;
60859;SDS011;46694;54.382;9.708;2023-02-17T15:48:49;51.70;;;8.10;;
60859;SDS011;46694;54.382;9.708;2023-02-17T15:51:30;39.87;;;7.17;;
60859;SDS011;46694;54.382;9.708;2023-02-17T15:54:09;40.27;;;8.27;;
60859;SDS011;46694;54.382;9.708;2023-02-17T15:56:49;41.67;;;6.70;;
60859;SDS011;46694;54.382;9.708;2023-02-17T15:59:30;61.00;;;8.50;;
60859;SDS011;46694;54.382;9.708;2023-02-17T16:02:17;55.13;;;9.70;;
60859;SDS011;46694;54.382;9.708;2023-02-17T16:05:00;67.20;;;9.30;;
60859;SDS011;46694;54.382;9.708;2023-02-17T16:07:39;55.90;;;8.82;;
60859;SDS011;46694;54.382;9.708;2023-02-17T16:10:20;54.33;;;8.50;;
60859;SDS011;46694;54.382;9.708;2023-02-17T16:13:05;66.00;;;8.45;;
60859;SDS011;46694;54.382;9.708;2023-02-17T16:15:45;43.88;;;9.55;;
60859;SDS011;46694;54.382;9.708;2023-02-17T16:18:26;57.30;;;11.30;;
60859;SDS011;46694;54.382;9.708;2023-02-17T16:21:07;44.40;;;8.67;;
60859;SDS011;46694;54.382;9.708;2023-02-17T16:23:49;57.63;;;8.85;;
60859;SDS011;46694;54.382;9.708;2023-02-17T16:26:31;56.27;;;8.90;;
60859;SDS011;46694;54.382;9.708;2023-02-17T16:29:14;62.83;;;8.52;;
60859;SDS011;46694;54.382;9.708;2023-02-17T16:31:59;61.08;;;9.07;;
60859;SDS011;46694;54.382;9.708;2023-02-17T16:34:38;67.57;;;8.17;;
60859;SDS011;46694;54.382;9.708;2023-02-17T16:40:55;54.17;;;8.73;;
60859;SDS011;46694;54.382;9.708;2023-02-17T16:43:34;76.93;;;9.68;;
60859;SDS011;46694;54.382;9.708;2023-02-17T16:46:19;60.38;;;9.38;;
60859;SDS011;46694;54.382;9.708;2023-02-17T16:49:14;54.85;;;8.13;;
60859;SDS011;46694;54.382;9.708;2023-02-17T16:52:01;63.47;;;10.10;;
60859;SDS011;46694;54.382;9.708;2023-02-17T16:54:43;62.80;;;10.63;;
60859;SDS011;46694;54.382;9.708;2023-02-17T16:57:23;50.90;;;8.07;;
60859;SDS011;46694;54.382;9.708;2023-02-17T17:00:04;57.42;;;9.13;;
60859;SDS011;46694;54.382;9.708;2023-02-17T17:02:44;54.22;;;11.27;;
60859;SDS011;46694;54.382;9.708;2023-02-17T17:05:25;70.25;;;8.68;;
60859;SDS011;46694;54.382;9.708;2023-02-17T17:08:08;69.82;;;8.45;;
60859;SDS011;46694;54.382;9.708;2023-02-17T17:10:51;49.60;;;6.78;;
60859;SDS011;46694;54.382;9.708;2023-02-17T17:13:31;55.55;;;8.95;;
60859;SDS011;46694;54.382;9.708;2023-02-17T17:16:15;68.82;;;9.43;;
60859;SDS011;46694;54.382;9.708;2023-02-17T17:19:02;44.38;;;8.30;;
60859;SDS011;46694;54.382;9.708;2023-02-17T17:21:41;62.08;;;10.23;;
60859;SDS011;46694;54.382;9.708;2023-02-17T17:24:21;57.97;;;9.40;;
60859;SDS011;46694;54.382;9.708;2023-02-17T17:27:00;48.10;;;8.32;;
60859;SDS011;46694;54.382;9.708;2023-02-17T17:29:40;54.78;;;8.57;;
60859;SDS011;46694;54.382;9.708;2023-02-17T17:32:19;65.20;;;8.60;;
60859;SDS011;46694;54.382;9.708;2023-02-17T17:34:59;47.17;;;7.07;;
60859;SDS011;46694;54.382;9.708;2023-02-17T17:37:38;46.35;;;8.35;;
60859;SDS011;46694;54.382;9.708;2023-02-17T17:40:20;53.25;;;7.60;;
60859;SDS011;46694;54.382;9.708;2023-02-17T17:43:34;58.60;;;11.70;;
60859;SDS011;46694;54.382;9.708;2023-02-17T17:46:18;41.75;;;8.23;;
60859;SDS011;46694;54.382;9.708;2023-02-17T17:49:00;51.13;;;9.05;;
60859;SDS011;46694;54.382;9.708;2023-02-17T17:51:42;50.25;;;7.60;;
60859;SDS011;46694;54.382;9.708;2023-02-17T17:54:22;65.00;;;7.28;;